Time;durP1;ratioP1;P1;durP2;ratioP2;P2;SDS_P1;SDS_P2;PMS_P1;PMS_P2;Temp;Humidity;BMP_temperature;BMP_pressure;BME280_temperature;BME280_humidity;BME280_pressure;Samples;Min_cycle;Max_cycle;Signal;HPM_P1;HPM_P2
2022/08/11 00:00:00;;;;;;;4.93;2.67;;;18.20;89.60;;;;;;5078334;28;20445;-85
2022/08/11 00:02:47;;;;;;;2.50;2.30;;;18.20;90.00;;;;;;5078820;28;20543;-85
2022/08/11 00:05:18;;;;;;;2.33;2.13;;;18.10;90.20;;;;;;5064694;28;20424;-85
2022/08/11 00:07:48;;;;;;;2.63;2.50;;;18.10;90.10;;;;;;5066958;28;20487;-85
2022/08/11 00:10:21;;;;;;;2.63;2.43;;;18.00;90.40;;;;;;5077453;28;20727;-85
2022/08/11 00:12:53;;;;;;;2.23;2.03;;;18.00;90.50;;;;;;5078474;28;20507;-85
2022/08/11 00:15:19;;;;;;;3.07;2.87;;;17.90;90.60;;;;;;5077022;28;20455;-85
2022/08/11 00:17:46;;;;;;;3.80;2.83;;;17.90;90.80;;;;;;5077386;28;20416;-85
2022/08/11 00:20:14;;;;;;;2.97;2.77;;;17.80;90.90;;;;;;5069050;28;20445;-85
2022/08/11 00:22:41;;;;;;;2.20;1.93;;;17.80;91.00;;;;;;5090739;28;20462;-85
2022/08/11 00:25:15;;;;;;;2.33;2.13;;;17.70;90.80;;;;;;5076975;28;20437;-85
2022/08/11 00:27:43;;;;;;;2.00;1.90;;;17.70;90.90;;;;;;5076786;28;20412;-85
2022/08/11 00:30:10;;;;;;;2.20;2.00;;;17.70;90.80;;;;;;5085817;28;20467;-86
2022/08/11 00:32:42;;;;;;;17.30;3.70;;;17.70;90.80;;;;;;5096909;28;20837;-85
2022/08/11 00:35:14;;;;;;;2.90;2.43;;;17.60;90.90;;;;;;5093756;28;20430;-85
2022/08/11 00:37:46;;;;;;;4.10;2.00;;;17.60;91.10;;;;;;5091383;28;20430;-85
2022/08/11 00:40:33;;;;;;;1.77;1.77;;;17.50;91.20;;;;;;5085458;28;20855;-84
2022/08/11 00:43:36;;;;;;;1.40;1.37;;;17.50;91.40;;;;;;5092019;28;20429;-85
2022/08/11 00:46:11;;;;;;;2.93;2.03;;;17.40;91.10;;;;;;5110432;28;20407;-85
2022/08/11 00:49:08;;;;;;;2.10;1.77;;;17.40;90.90;;;;;;5110184;28;20429;-85
2022/08/11 00:51:51;;;;;;;2.00;1.50;;;17.40;90.90;;;;;;5092319;28;20581;-85
2022/08/11 00:54:59;;;;;;;2.80;2.60;;;17.50;90.60;;;;;;5079610;28;20416;-85
2022/08/11 00:57:52;;;;;;;1.97;1.90;;;17.50;90.50;;;;;;5092140;28;20438;-85
2022/08/11 01:00:23;;;;;;;2.47;2.10;;;17.50;90.70;;;;;;5092146;28;20431;-85
2022/08/11 01:03:07;;;;;;;2.50;2.33;;;17.50;90.90;;;;;;5092101;28;20431;-85
2022/08/11 01:05:47;;;;;;;2.60;2.40;;;17.40;91.30;;;;;;5079199;28;20427;-85
2022/08/11 01:08:55;;;;;;;1.60;1.50;;;17.40;91.90;;;;;;5094543;28;20777;-85
2022/08/11 01:11:21;;;;;;;2.50;2.30;;;17.40;92.20;;;;;;5031447;28;20459;-85
2022/08/11 01:14:10;;;;;;;4.10;2.43;;;17.30;92.40;;;;;;5113877;28;20454;-85
2022/08/11 01:16:54;;;;;;;2.60;2.27;;;17.20;92.50;;;;;;5095570;28;20654;-85
2022/08/11 01:19:44;;;;;;;3.37;2.60;;;17.20;92.80;;;;;;5095462;28;20447;-85
2022/08/11 01:22:24;;;;;;;2.57;2.37;;;17.10;92.80;;;;;;5095360;28;20451;-85
2022/08/11 01:25:07;;;;;;;2.93;2.77;;;17.00;92.90;;;;;;5094734;28;20422;-85
2022/08/11 01:27:38;;;;;;;3.43;2.53;;;17.00;92.80;;;;;;5100044;28;20588;-85
2022/08/11 01:30:38;;;;;;;3.43;2.37;;;17.00;92.70;;;;;;5094942;28;20448;-85
2022/08/11 01:33:37;;;;;;;3.53;2.23;;;17.00;92.70;;;;;;5101720;27;20953;-85
2022/08/11 01:36:22;;;;;;;3.37;2.83;;;16.90;92.70;;;;;;5087024;27;20410;-84
2022/08/11 01:39:21;;;;;;;3.80;2.00;;;16.90;92.70;;;;;;5097873;28;20473;-85
2022/08/11 01:44:51;;;;;;;4.00;2.20;;;16.90;92.90;;;;;;5101091;28;20771;-85
2022/08/11 01:50:21;;;;;;;2.47;2.27;;;16.80;93.40;;;;;;5112122;28;20516;-85
2022/08/11 01:53:11;;;;;;;2.93;2.43;;;16.70;93.70;;;;;;5095064;28;20920;-85
2022/08/11 01:56:31;;;;;;;1.90;1.80;;;16.70;93.60;;;;;;5094856;28;20469;-85
2022/08/11 01:59:02;;;;;;;4.10;2.30;;;16.60;93.70;;;;;;5030600;28;20427;-85
2022/08/11 02:01:53;;;;;;;2.50;2.33;;;16.60;94.10;;;;;;5044529;28;20450;-85
2022/08/11 02:04:37;;;;;;;2.37;2.17;;;16.50;94.10;;;;;;5098384;28;20785;-85
2022/08/11 02:07:25;;;;;;;2.47;2.27;;;16.50;94.40;;;;;;5100909;27;20457;-85
2022/08/11 02:13:56;;;;;;;11.10;2.90;;;16.40;94.50;;;;;;5056314;28;20763;-85
2022/08/11 02:16:36;;;;;;;2.87;2.17;;;16.40;94.50;;;;;;5084831;28;20420;-85
2022/08/11 02:25:08;;;;;;;5.13;2.47;;;16.30;95.00;;;;;;5112777;28;20800;-85
2022/08/11 02:27:40;;;;;;;4.30;2.03;;;16.20;95.10;;;;;;5094574;28;20423;-85
2022/08/11 02:30:13;;;;;;;1.83;1.70;;;16.20;95.10;;;;;;5093822;28;20976;-85
2022/08/11 02:36:09;;;;;;;3.63;2.23;;;16.10;95.50;;;;;;5101385;28;20421;-87
2022/08/11 02:39:05;;;;;;;1.90;1.80;;;16.10;95.60;;;;;;5087136;28;20752;-88
2022/08/11 02:44:27;;;;;;;2.70;2.33;;;16.00;95.70;;;;;;5112929;28;20962;-88
2022/08/11 02:47:14;;;;;;;4.60;3.30;;;16.00;95.70;;;;;;5100267;28;20420;-88
2022/08/11 02:49:52;;;;;;;2.33;2.13;;;15.90;95.80;;;;;;5090729;28;20435;-88
2022/08/11 02:52:30;;;;;;;1.90;1.80;;;15.90;95.80;;;;;;5093954;28;20438;-88
2022/08/11 02:55:14;;;;;;;3.83;2.87;;;15.90;95.60;;;;;;5112212;28;20805;-88
2022/08/11 02:57:46;;;;;;;2.60;2.40;;;15.90;95.70;;;;;;5093738;28;20412;-88
2022/08/11 03:00:14;;;;;;;4.13;3.00;;;15.80;96.00;;;;;;5093904;28;20431;-88
2022/08/11 03:03:09;;;;;;;4.77;2.03;;;15.80;96.00;;;;;;5098880;28;20510;-88
2022/08/11 03:05:47;;;;;;;2.50;2.30;;;15.70;96.10;;;;;;5093693;27;20959;-88
2022/08/11 03:08:41;;;;;;;2.30;2.13;;;15.70;96.30;;;;;;5093496;28;20797;-87
2022/08/11 03:18:01;;;;;;;5.30;3.67;;;15.60;96.50;;;;;;5109389;27;20442;-88
2022/08/11 03:20:45;;;;;;;3.07;2.30;;;15.60;96.50;;;;;;5030770;28;20462;-88
2022/08/11 03:23:20;;;;;;;2.60;2.40;;;15.60;96.80;;;;;;5086732;28;20415;-88
2022/08/11 03:26:25;;;;;;;2.70;2.20;;;15.50;96.80;;;;;;5084873;28;20438;-88
2022/08/11 03:29:19;;;;;;;1.60;1.50;;;15.50;97.00;;;;;;5078407;28;20423;-88
2022/08/11 03:31:51;;;;;;;4.10;2.17;;;15.50;97.00;;;;;;5091592;28;21035;-87
2022/08/11 03:34:25;;;;;;;4.70;2.33;;;15.50;97.00;;;;;;5111370;28;20396;-87
2022/08/11 03:43:38;;;;;;;2.90;2.53;;;15.40;97.30;;;;;;5106937;28;20528;-89
2022/08/11 03:46:11;;;;;;;2.33;2.13;;;15.40;97.30;;;;;;5091956;28;20423;-88
2022/08/11 03:48:46;;;;;;;3.17;2.70;;;15.30;97.30;;;;;;5083196;28;20959;-87
2022/08/11 03:51:28;;;;;;;4.70;2.40;;;15.30;97.30;;;;;;5085450;28;20428;-88
2022/08/11 03:53:58;;;;;;;5.73;2.57;;;15.30;97.30;;;;;;5109098;28;20411;-88
2022/08/11 03:56:50;;;;;;;2.40;2.20;;;15.30;97.30;;;;;;5090366;28;20412;-88
2022/08/11 03:59:45;;;;;;;3.80;2.43;;;15.20;97.30;;;;;;5051271;28;20427;-88
2022/08/11 04:02:35;;;;;;;2.50;2.17;;;15.20;97.30;;;;;;5088027;28;20451;-88
2022/08/11 04:05:33;;;;;;;3.67;3.00;;;15.20;97.30;;;;;;5096544;28;20430;-88
2022/08/11 04:08:18;;;;;;;3.33;2.10;;;15.10;97.30;;;;;;5050120;28;20423;-88
2022/08/11 04:11:14;;;;;;;26.43;2.40;;;15.10;97.30;;;;;;5111247;28;20411;-88
2022/08/11 04:17:34;;;;;;;2.80;2.53;;;15.10;97.30;;;;;;5016258;28;20440;-88
2022/08/11 04:20:34;;;;;;;4.57;3.20;;;15.10;97.30;;;;;;5000987;28;20970;-88
2022/08/11 04:23:41;;;;;;;6.43;3.33;;;15.10;97.30;;;;;;5111102;28;20424;-88
2022/08/11 04:26:32;;;;;;;2.80;2.60;;;15.10;97.30;;;;;;5093480;28;20416;-88
2022/08/11 04:29:31;;;;;;;2.47;2.37;;;15.10;97.30;;;;;;5091724;28;20435;-88
2022/08/11 04:32:23;;;;;;;3.90;3.43;;;15.10;97.30;;;;;;5089621;28;20439;-88
2022/08/11 04:35:11;;;;;;;3.20;2.33;;;15.20;97.30;;;;;;5066343;28;20417;-89
2022/08/11 04:38:07;;;;;;;3.43;3.20;;;15.10;97.30;;;;;;5094608;28;20689;-88
2022/08/11 04:40:49;;;;;;;2.83;2.63;;;15.20;97.30;;;;;;5093720;28;20495;-88
2022/08/11 04:43:48;;;;;;;2.40;2.20;;;15.20;97.30;;;;;;5093132;27;20411;-88
2022/08/11 04:46:26;;;;;;;3.60;3.07;;;15.20;97.30;;;;;;5099217;28;21017;-88
2022/08/11 05:03:23;;;;;;;2.97;2.83;;;15.40;97.30;;;;;;5056335;28;20520;-85
2022/08/11 05:06:05;;;;;;;4.73;3.20;;;15.40;97.30;;;;;;5040493;28;20461;-85
2022/08/11 05:08:59;;;;;;;5.90;2.83;;;15.50;97.30;;;;;;5039001;28;21065;-84
2022/08/11 05:11:58;;;;;;;3.03;2.40;;;15.60;97.30;;;;;;5037062;28;20420;-85
2022/08/11 05:34:53;;;;;;;6.07;4.17;;;16.00;97.30;;;;;;5044151;28;20437;-85
2022/08/11 05:37:32;;;;;;;3.50;2.80;;;16.10;97.30;;;;;;5037887;28;20429;-85
2022/08/11 05:57:04;;;;;;;2.93;2.73;;;16.50;97.30;;;;;;5055811;28;20509;-85
2022/08/11 05:59:31;;;;;;;28.57;3.37;;;16.60;97.30;;;;;;5021526;28;20490;-85
2022/08/11 06:02:02;;;;;;;4.93;3.10;;;16.70;97.30;;;;;;5017502;28;20832;-85
2022/08/11 06:04:29;;;;;;;6.47;2.93;;;16.80;97.30;;;;;;5017760;28;20477;-84
2022/08/11 06:07:09;;;;;;;2.97;2.77;;;16.80;97.30;;;;;;5017184;28;20507;-85
2022/08/11 06:09:47;;;;;;;2.83;2.60;;;16.90;97.30;;;;;;5020207;28;20434;-85
2022/08/11 06:12:21;;;;;;;5.00;3.17;;;17.00;97.30;;;;;;5017678;28;20431;-85
2022/08/11 06:14:52;;;;;;;2.33;2.13;;;17.10;97.30;;;;;;5036359;28;20426;-85
2022/08/11 06:17:45;;;;;;;4.20;3.20;;;17.20;97.30;;;;;;5017762;28;20529;-85
2022/08/11 06:20:13;;;;;;;4.10;2.60;;;17.30;97.30;;;;;;5018218;28;20462;-85
2022/08/11 06:22:44;;;;;;;2.67;2.47;;;17.40;97.30;;;;;;5018665;28;20482;-85
2022/08/11 06:25:11;;;;;;;2.50;2.30;;;17.50;97.30;;;;;;5006414;28;20423;-85
2022/08/11 06:27:38;;;;;;;3.20;3.00;;;17.60;97.30;;;;;;5034482;28;20909;-84
2022/08/11 06:30:15;;;;;;;2.97;2.50;;;17.70;97.30;;;;;;5034222;28;20463;-85
2022/08/11 06:32:44;;;;;;;2.80;2.40;;;17.80;97.30;;;;;;5001490;28;20419;-84
2022/08/11 06:35:37;;;;;;;3.50;2.40;;;17.90;97.30;;;;;;5028723;28;20497;-85
2022/08/11 06:38:23;;;;;;;3.10;2.90;;;18.00;97.00;;;;;;5017357;28;20430;-85
2022/08/11 06:44:13;;;;;;;3.90;2.27;;;18.20;96.50;;;;;;5030687;28;20420;-84
2022/08/11 06:46:51;;;;;;;3.30;2.20;;;18.40;96.40;;;;;;5012391;28;20465;-85
2022/08/11 06:52:09;;;;;;;2.03;1.93;;;18.60;95.80;;;;;;5035098;28;20418;-85
2022/08/11 06:54:40;;;;;;;3.60;2.73;;;18.80;95.10;;;;;;5017301;28;20602;-85
2022/08/11 07:02:47;;;;;;;4.10;2.67;;;19.20;94.00;;;;;;5054173;28;20484;-84
2022/08/11 07:05:19;;;;;;;3.03;2.77;;;19.40;93.60;;;;;;5025329;28;20426;-84
2022/08/11 07:16:50;;;;;;;8.40;1.93;;;20.00;92.10;;;;;;5054357;28;20824;-84
2022/08/11 07:31:08;;;;;;;1.90;1.80;;;20.90;88.40;;;;;;5041200;28;20424;-84
2022/08/11 07:33:50;;;;;;;2.33;2.13;;;21.20;86.90;;;;;;5055055;28;20923;-84
2022/08/11 07:36:17;;;;;;;1.83;1.80;;;21.30;86.30;;;;;;5035669;28;20465;-84
2022/08/11 07:38:50;;;;;;;3.20;2.23;;;21.50;87.00;;;;;;5035856;28;20434;-82
2022/08/11 07:41:19;;;;;;;1.63;1.60;;;21.60;87.30;;;;;;5036056;28;20688;-82
2022/08/11 07:43:47;;;;;;;2.67;2.07;;;21.70;87.30;;;;;;5022966;28;20406;-82
2022/08/11 07:54:30;;;;;;;4.27;2.80;;;22.30;84.30;;;;;;5053600;28;20938;-82
2022/08/11 07:56:57;;;;;;;2.27;1.60;;;22.50;83.70;;;;;;5023697;28;20450;-81
2022/08/11 08:18:45;;;;;;;2.40;2.13;;;23.70;80.50;;;;;;5053210;28;20887;-84
2022/08/11 08:21:10;;;;;;;1.73;1.63;;;23.80;79.80;;;;;;5035275;28;20450;-87
2022/08/11 08:23:38;;;;;;;2.77;2.27;;;23.90;79.10;;;;;;5035947;28;20422;-85
2022/08/11 08:26:57;;;;;;;1.40;1.40;;;23.90;79.40;;;;;;5035243;28;20267;-84
2022/08/11 08:30:46;;;;;;;3.10;1.60;;;24.00;79.30;;;;;;5052432;28;20446;-84
2022/08/11 08:31:42;;;;;;;3.80;2.27;;;24.20;78.80;;;;;;5053102;28;20508;-84
2022/08/11 08:34:09;;;;;;;1.63;1.60;;;24.30;79.10;;;;;;5035086;28;20426;-84
2022/08/11 08:36:35;;;;;;;2.50;2.00;;;24.50;78.50;;;;;;5021689;28;20947;-85
2022/08/11 08:39:01;;;;;;;3.50;2.10;;;24.50;78.10;;;;;;5034841;28;20450;-84
2022/08/11 08:41:31;;;;;;;4.63;2.77;;;24.60;77.30;;;;;;5034921;28;20595;-84
2022/08/11 08:44:02;;;;;;;1.40;1.30;;;24.70;78.70;;;;;;5035088;28;20171;-85
2022/08/11 08:46:35;;;;;;;2.30;1.93;;;24.80;78.00;;;;;;5034655;28;20419;-85
2022/08/11 08:49:03;;;;;;;2.13;1.90;;;24.90;78.10;;;;;;5034368;28;20430;-85
2022/08/11 08:51:34;;;;;;;2.60;1.93;;;25.00;77.30;;;;;;5052020;28;20414;-84
2022/08/11 08:54:22;;;;;;;1.67;1.57;;;25.20;77.20;;;;;;5047470;28;20574;-84
2022/08/11 08:56:49;;;;;;;1.63;1.50;;;25.40;77.50;;;;;;5021837;28;20421;-85
2022/08/11 08:59:16;;;;;;;1.43;1.33;;;25.50;77.30;;;;;;5034252;28;20470;-84
2022/08/11 09:01:49;;;;;;;3.23;2.40;;;25.60;77.20;;;;;;5034525;28;20520;-84
2022/08/11 09:04:17;;;;;;;1.90;1.77;;;25.70;75.00;;;;;;5034823;28;20410;-85
2022/08/11 09:06:43;;;;;;;1.67;1.57;;;25.80;75.00;;;;;;5034216;28;20859;-85
2022/08/11 09:09:11;;;;;;;2.37;1.97;;;25.80;73.20;;;;;;5033393;28;20800;-85
2022/08/11 09:11:52;;;;;;;1.40;1.10;;;25.90;72.80;;;;;;5021823;28;20488;-85
2022/08/11 09:14:22;;;;;;;2.10;1.30;;;25.90;72.60;;;;;;5034060;28;20422;-85
2022/08/11 09:16:49;;;;;;;1.70;1.63;;;26.00;72.50;;;;;;5052550;28;20438;-84
2022/08/11 09:19:18;;;;;;;2.00;1.93;;;26.00;72.90;;;;;;5033931;28;21020;-85
2022/08/11 09:27:21;;;;;;;1.60;1.50;;;26.30;72.20;;;;;;5052611;28;20471;-82
2022/08/11 09:29:47;;;;;;;1.63;1.60;;;26.40;72.20;;;;;;5018671;28;20442;-82
2022/08/11 09:32:13;;;;;;;1.90;1.80;;;26.50;72.30;;;;;;5038209;28;20464;-82
2022/08/11 09:34:39;;;;;;;1.57;1.40;;;26.60;71.80;;;;;;5056324;28;20425;-82
2022/08/11 09:45:23;;;;;;;3.60;1.63;;;26.90;70.70;;;;;;5056338;28;20433;-82
2022/08/11 09:47:49;;;;;;;3.20;2.43;;;26.90;70.30;;;;;;5037879;28;20426;-82
2022/08/11 09:50:16;;;;;;;2.30;2.10;;;27.00;71.20;;;;;;5054924;28;20203;-82
2022/08/11 09:52:44;;;;;;;1.67;1.57;;;27.10;70.40;;;;;;5037966;28;20414;-83
2022/08/11 09:55:13;;;;;;;1.93;1.83;;;27.20;69.70;;;;;;5055775;28;20525;-82
2022/08/11 10:00:36;;;;;;;1.70;1.60;;;27.30;69.10;;;;;;5046360;28;20449;-83
2022/08/11 10:03:06;;;;;;;1.70;1.47;;;27.40;68.50;;;;;;5037885;28;20508;-83
2022/08/11 10:08:18;;;;;;;3.23;2.50;;;27.40;68.30;;;;;;5054793;28;20413;-82
2022/08/11 10:10:46;;;;;;;1.77;1.67;;;27.40;68.50;;;;;;5037217;28;20422;-83
2022/08/11 10:13:19;;;;;;;1.97;1.70;;;27.50;69.20;;;;;;5024522;28;20480;-85
2022/08/11 10:15:46;;;;;;;1.53;1.50;;;27.60;68.80;;;;;;5037163;28;20420;-84
2022/08/11 10:21:23;;;;;;;1.53;1.40;;;27.80;68.70;;;;;;5040535;28;20469;-83
2022/08/11 10:26:59;;;;;;;2.07;1.67;;;28.00;68.60;;;;;;5055227;28;20421;-83
2022/08/11 10:35:12;;;;;;;2.20;1.70;;;28.20;69.00;;;;;;5055205;28;20496;-83
2022/08/11 10:37:39;;;;;;;2.07;1.40;;;28.30;68.70;;;;;;5038182;28;20943;-83
2022/08/11 10:40:07;;;;;;;13.70;2.90;;;28.30;68.20;;;;;;5036072;28;20438;-83
2022/08/11 10:48:05;;;;;;;1.37;1.27;;;28.40;66.20;;;;;;5054835;28;20417;-84
2022/08/11 10:51:14;;;;;;;1.40;1.30;;;28.50;66.90;;;;;;5036840;28;20420;-84
2022/08/11 10:58:56;;;;;;;1.43;1.40;;;28.70;65.80;;;;;;5055005;28;20516;-83
2022/08/11 11:01:33;;;;;;;7.43;2.20;;;28.80;66.80;;;;;;5067581;22;20521;-83
2022/08/11 11:04:03;;;;;;;3.33;2.07;;;28.90;66.70;;;;;;5087876;28;20413;-84
2022/08/11 11:06:36;;;;;;;1.67;1.57;;;29.00;64.80;;;;;;5071310;28;20773;-84
2022/08/11 11:09:13;;;;;;;5.43;1.80;;;29.00;65.60;;;;;;5053984;28;20502;-83
2022/08/11 11:17:56;;;;;;;2.97;1.77;;;29.30;66.00;;;;;;5052717;28;20389;-84
2022/08/11 11:20:34;;;;;;;2.07;1.93;;;29.40;65.40;;;;;;5047916;28;20445;-84
2022/08/11 11:23:07;;;;;;;1.13;1.13;;;29.40;64.10;;;;;;5050941;28;20548;-84
2022/08/11 11:26:05;;;;;;;1.97;1.87;;;29.30;64.20;;;;;;5051163;28;20529;-83
2022/08/11 11:28:50;;;;;;;2.80;1.40;;;29.30;63.30;;;;;;5032263;28;20424;-83
2022/08/11 11:31:27;;;;;;;1.50;1.40;;;29.20;63.50;;;;;;5032208;28;20893;-84
2022/08/11 11:34:36;;;;;;;2.27;1.60;;;29.20;63.90;;;;;;5030796;28;20439;-82
2022/08/11 11:37:03;;;;;;;1.67;1.30;;;29.20;63.00;;;;;;5030602;28;20956;-83
2022/08/11 11:39:31;;;;;;;1.53;1.47;;;29.20;63.70;;;;;;5047135;28;20951;-83
2022/08/11 11:42:02;;;;;;;2.90;1.60;;;29.30;63.00;;;;;;5047050;28;20461;-83
2022/08/11 11:44:28;;;;;;;2.13;1.30;;;29.30;62.50;;;;;;5047143;28;20408;-83
2022/08/11 11:46:54;;;;;;;1.77;1.13;;;29.30;64.40;;;;;;5046807;28;20955;-83
2022/08/11 11:49:23;;;;;;;1.87;1.83;;;29.50;63.20;;;;;;5047334;28;20455;-84
2022/08/11 11:51:51;;;;;;;1.60;1.50;;;29.50;63.60;;;;;;5046602;28;20183;-85
2022/08/11 11:54:22;;;;;;;2.83;2.07;;;29.60;63.90;;;;;;5045011;28;20837;-84
2022/08/11 11:56:52;;;;;;;1.90;1.80;;;29.80;63.50;;;;;;5030181;28;20511;-83
2022/08/11 12:02:11;;;;;;;1.37;1.27;;;30.00;63.80;;;;;;5044926;28;20481;-84
2022/08/11 12:04:40;;;;;;;3.87;1.77;;;30.20;64.20;;;;;;5067554;28;20424;-84
2022/08/11 12:09:52;;;;;;;3.23;1.77;;;30.40;64.10;;;;;;5051851;28;20483;-84
2022/08/11 12:15:05;;;;;;;1.77;1.47;;;30.50;62.40;;;;;;5031838;28;20457;-84
2022/08/11 12:17:31;;;;;;;4.43;2.47;;;30.50;62.60;;;;;;5046526;28;20819;-84
2022/08/11 12:19:57;;;;;;;1.40;1.30;;;30.50;62.70;;;;;;5030446;28;20438;-83
2022/08/11 12:27:54;;;;;;;3.07;1.47;;;30.70;62.50;;;;;;5051500;28;20823;-84
2022/08/11 12:30:20;;;;;;;1.53;1.43;;;30.80;63.20;;;;;;5033760;28;21046;-83
2022/08/11 12:32:46;;;;;;;1.70;1.70;;;30.90;62.40;;;;;;5033463;28;20418;-84
2022/08/11 12:35:14;;;;;;;7.30;2.13;;;30.90;61.20;;;;;;5032060;28;20422;-84
2022/08/11 12:37:43;;;;;;;5.63;2.07;;;30.90;61.30;;;;;;5046302;28;20558;-84
2022/08/11 12:45:46;;;;;;;1.77;1.67;;;30.80;61.00;;;;;;5052081;28;20437;-83
2022/08/11 12:53:59;;;;;;;1.87;1.03;;;31.10;60.50;;;;;;5051503;28;20425;-84
2022/08/11 13:04:58;;;;;;;2.30;1.57;;;31.30;60.60;;;;;;5034697;28;20391;-84
2022/08/11 13:07:28;;;;;;;1.30;1.20;;;31.30;60.60;;;;;;5050227;28;20399;-84
2022/08/11 13:09:56;;;;;;;3.90;2.20;;;31.50;61.30;;;;;;5060436;28;20433;-84
2022/08/11 13:15:10;;;;;;;1.23;1.13;;;31.60;60.00;;;;;;5055030;28;20433;-83
2022/08/11 13:17:36;;;;;;;1.63;1.53;;;31.60;60.80;;;;;;5053032;28;20458;-84
2022/08/11 13:20:03;;;;;;;5.50;1.80;;;31.60;60.60;;;;;;5050234;28;21129;-83
2022/08/11 13:22:29;;;;;;;4.20;1.87;;;31.70;60.20;;;;;;5049538;28;20882;-83
2022/08/11 13:24:57;;;;;;;2.70;1.90;;;31.70;59.20;;;;;;5064154;28;20942;-84
2022/08/11 13:27:23;;;;;;;1.97;1.87;;;31.60;59.80;;;;;;5061910;28;20418;-84
2022/08/11 13:29:52;;;;;;;2.57;2.07;;;31.50;59.60;;;;;;5050845;28;20439;-84
2022/08/11 13:32:20;;;;;;;2.90;1.97;;;31.60;59.90;;;;;;5069693;28;20515;-83
2022/08/11 13:34:46;;;;;;;11.83;2.50;;;31.60;60.40;;;;;;5053354;28;20414;-84
2022/08/11 13:37:14;;;;;;;2.17;1.50;;;31.80;62.20;;;;;;5054382;28;20949;-84
2022/08/11 13:39:46;;;;;;;1.20;1.20;;;32.00;59.70;;;;;;5053034;28;20526;-83
2022/08/11 13:42:14;;;;;;;1.27;1.20;;;32.20;59.30;;;;;;5052649;28;20462;-84
2022/08/11 13:44:41;;;;;;;1.83;1.73;;;32.30;58.70;;;;;;5053077;28;20422;-84
2022/08/11 13:47:10;;;;;;;1.40;1.30;;;32.40;60.00;;;;;;5052808;28;20421;-83
2022/08/11 13:49:38;;;;;;;4.37;2.00;;;32.50;59.30;;;;;;5035824;28;20454;-84
2022/08/11 13:52:08;;;;;;;1.83;1.73;;;32.50;58.80;;;;;;5049145;28;20766;-83
2022/08/11 13:54:37;;;;;;;1.23;1.13;;;32.50;58.70;;;;;;5049722;28;20900;-84
2022/08/11 13:57:11;;;;;;;2.10;1.93;;;32.40;59.50;;;;;;5032774;28;20419;-84
2022/08/11 13:59:38;;;;;;;1.40;1.30;;;32.50;58.80;;;;;;5049117;28;20435;-84
2022/08/11 14:02:07;;;;;;;1.30;1.20;;;32.60;59.90;;;;;;5032457;28;20818;-85
2022/08/11 14:04:42;;;;;;;1.73;1.63;;;32.60;59.60;;;;;;5049155;28;20412;-84
2022/08/11 14:07:10;;;;;;;1.70;1.60;;;32.70;60.90;;;;;;5049061;28;20482;-83
2022/08/11 14:09:39;;;;;;;1.43;1.23;;;32.80;60.20;;;;;;5048820;28;20984;-84
2022/08/11 14:15:13;;;;;;;3.87;1.30;;;32.90;58.40;;;;;;5052954;28;20448;-84
2022/08/11 14:17:40;;;;;;;1.70;1.60;;;33.00;59.10;;;;;;5062361;28;20416;-84
2022/08/11 14:20:08;;;;;;;3.10;1.57;;;33.00;59.00;;;;;;5062653;28;21004;-85
2022/08/11 14:22:38;;;;;;;1.33;1.23;;;33.00;59.40;;;;;;5052314;28;20461;-84
2022/08/11 14:25:04;;;;;;;1.90;1.80;;;33.10;59.60;;;;;;5052456;28;20501;-82
2022/08/11 14:27:30;;;;;;;1.47;1.33;;;33.20;59.70;;;;;;5052578;28;20402;-84
2022/08/11 14:29:57;;;;;;;1.80;1.60;;;33.30;59.50;;;;;;5051813;28;20423;-83
2022/08/11 14:32:24;;;;;;;1.50;1.40;;;33.40;59.30;;;;;;5051976;28;20422;-83
2022/08/11 14:34:50;;;;;;;1.33;1.20;;;33.40;58.80;;;;;;5052033;28;20777;-83
2022/08/11 14:37:22;;;;;;;2.03;1.70;;;33.50;58.70;;;;;;5052013;28;20414;-83
2022/08/11 14:39:58;;;;;;;1.60;1.53;;;33.50;58.80;;;;;;5051779;28;20431;-84
2022/08/11 14:48:03;;;;;;;1.70;1.60;;;33.10;58.20;;;;;;5036378;28;20406;-83
2022/08/11 14:50:32;;;;;;;3.73;1.77;;;33.20;58.00;;;;;;5048529;28;20439;-84
2022/08/11 14:53:10;;;;;;;1.20;1.10;;;33.30;58.70;;;;;;5066469;28;20552;-83
2022/08/11 14:58:27;;;;;;;1.43;1.30;;;33.40;57.50;;;;;;5032727;28;20457;-84
2022/08/11 15:00:58;;;;;;;4.70;1.60;;;33.30;57.00;;;;;;5031259;28;20987;-83
2022/08/11 15:03:26;;;;;;;1.90;1.80;;;33.30;57.10;;;;;;5032930;28;20487;-83
2022/08/11 15:06:03;;;;;;;1.73;1.60;;;33.10;57.90;;;;;;5048113;28;20474;-84
2022/08/11 15:14:05;;;;;;;2.07;1.87;;;33.30;57.10;;;;;;5052528;28;20965;-84
2022/08/11 15:19:19;;;;;;;1.30;1.20;;;33.30;56.40;;;;;;5052622;28;20495;-83
2022/08/11 15:24:30;;;;;;;2.13;2.00;;;33.30;57.40;;;;;;5052447;28;20766;-84
2022/08/11 15:38:01;;;;;;;1.33;1.23;;;33.30;58.90;;;;;;5037526;28;20457;-84
2022/08/11 15:46:26;;;;;;;7.13;1.43;;;33.20;57.20;;;;;;5051942;28;20997;-84
2022/08/11 15:48:59;;;;;;;15.83;3.03;;;33.20;56.60;;;;;;5067018;28;20434;-84
2022/08/11 15:51:27;;;;;;;1.70;1.60;;;33.10;57.90;;;;;;5067542;28;20426;-84
2022/08/11 15:53:58;;;;;;;1.83;1.60;;;33.10;57.20;;;;;;5067161;28;20430;-85
2022/08/11 15:56:30;;;;;;;2.60;2.40;;;33.10;56.80;;;;;;5050306;28;20563;-83
2022/08/11 16:04:33;;;;;;;2.40;2.20;;;33.00;56.60;;;;;;5037154;28;20480;-83
2022/08/11 16:07:04;;;;;;;2.03;1.40;;;32.80;56.10;;;;;;5054057;28;20419;-83
2022/08/11 16:09:37;;;;;;;1.30;1.20;;;32.70;56.70;;;;;;5046849;28;20980;-83
2022/08/11 16:12:06;;;;;;;1.73;1.30;;;32.70;56.50;;;;;;5061582;28;20559;-83
2022/08/11 16:17:25;;;;;;;2.80;2.60;;;32.70;57.00;;;;;;5041112;28;20970;-83
2022/08/11 16:19:54;;;;;;;2.83;2.17;;;32.70;57.20;;;;;;5066471;28;20514;-83
2022/08/11 16:22:27;;;;;;;1.83;1.37;;;32.80;57.80;;;;;;5066632;28;20449;-83
2022/08/11 16:24:55;;;;;;;1.70;1.60;;;32.90;56.80;;;;;;5062382;28;20473;-83
2022/08/11 16:27:21;;;;;;;1.43;1.40;;;32.60;55.80;;;;;;5043012;28;20417;-83
2022/08/11 16:29:50;;;;;;;1.43;1.30;;;32.40;56.20;;;;;;5061111;28;20470;-83
2022/08/11 16:32:20;;;;;;;1.33;1.23;;;32.20;56.50;;;;;;5058996;28;20770;-84
2022/08/11 16:40:35;;;;;;;2.60;1.80;;;32.00;57.60;;;;;;5035832;28;20562;-83
2022/08/11 16:48:48;;;;;;;1.10;1.00;;;31.90;55.90;;;;;;5035946;28;20459;-83
2022/08/11 16:51:14;;;;;;;1.13;1.03;;;31.90;56.50;;;;;;5034254;28;20477;-83
2022/08/11 16:53:43;;;;;;;2.90;1.90;;;31.80;55.80;;;;;;5034121;28;20427;-83
2022/08/11 16:56:13;;;;;;;1.63;1.47;;;31.80;56.20;;;;;;5033810;28;20411;-83
2022/08/11 17:01:25;;;;;;;6.40;1.50;;;31.50;56.10;;;;;;5054577;28;20476;-83
2022/08/11 17:16:05;;;;;;;1.70;1.20;;;30.70;56.60;;;;;;5043821;28;20402;-79
2022/08/11 17:17:59;;;;;;;1.40;1.30;;;30.40;57.40;;;;;;5045637;28;20478;-79
2022/08/11 17:20:26;;;;;;;1.93;1.20;;;30.10;57.80;;;;;;5036223;28;20525;-79
2022/08/11 17:25:38;;;;;;;1.63;1.50;;;29.80;58.20;;;;;;5051570;28;20410;-79
2022/08/11 17:28:05;;;;;;;2.60;2.50;;;29.60;59.00;;;;;;5054499;28;20406;-79
2022/08/11 17:36:02;;;;;;;1.73;1.30;;;29.20;58.60;;;;;;5035309;28;20415;-79
2022/08/11 17:38:29;;;;;;;2.07;1.10;;;29.10;59.70;;;;;;5032551;28;20437;-79
2022/08/11 17:49:19;;;;;;;1.00;1.00;;;28.60;59.30;;;;;;5051557;28;20946;-79
2022/08/11 18:00:07;;;;;;;1.40;1.30;;;28.20;59.60;;;;;;5042258;28;20442;-79
2022/08/11 18:05:32;;;;;;;0.90;0.80;;;28.20;60.80;;;;;;5053839;28;20422;-79
